createdAt,value
2024-05-09T00:00:40.672Z,89.8695
2024-05-09T00:01:47.944Z,89.6345
2024-05-09T00:02:54.199Z,89.2042
2024-05-09T00:04:02.456Z,90.0099
2024-05-09T00:05:09.421Z,89.3843
2024-05-09T00:06:15.546Z,89.8055
2024-05-09T00:07:21.709Z,90.1015
2024-05-09T00:08:28.884Z,90.3441
2024-05-09T00:09:35.216Z,89.3874
2024-05-09T00:10:41.673Z,90.2678
2024-05-09T00:11:48.011Z,89.7139
2024-05-09T00:12:54.293Z,90.2495
2024-05-09T00:14:00.907Z,90.0114
2024-05-09T00:15:07.253Z,89.8222
2024-05-09T00:16:13.339Z,89.7231
2024-05-09T00:17:19.578Z,90.0206
2024-05-09T00:18:25.873Z,89.9611
2024-05-09T00:19:32.265Z,90.5135
2024-05-09T00:20:40.841Z,89.8421
2024-05-09T00:21:50.448Z,90.2892
2024-05-09T00:22:57.232Z,90.5776
2024-05-09T00:24:03.221Z,90.3395
2024-05-09T00:25:09.710Z,90.2907
2024-05-09T00:26:15.837Z,89.9245
2024-05-09T00:27:22.047Z,90.3487
2024-05-09T00:28:28.814Z,90.8537
2024-05-09T00:29:35.041Z,91.1238
2024-05-09T00:30:41.273Z,90.5425
2024-05-09T00:32:03.187Z,91.5434
2024-05-09T00:33:10.780Z,91.0307
2024-05-09T00:34:18.859Z,91.2779
2024-05-09T00:35:25.936Z,90.8339
2024-05-09T00:36:32.661Z,90.9804
2024-05-09T00:38:05.047Z,90.8064
2024-05-09T00:39:12.180Z,90.7347
2024-05-09T00:40:27.086Z,90.7835
2024-05-09T00:41:31.763Z,90.4143
2024-05-09T00:42:38.613Z,90.2861
2024-05-09T00:43:45.535Z,90.3639
2024-05-09T00:44:57.188Z,91.0140
2024-05-09T00:46:05.409Z,90.2129
2024-05-09T00:47:15.474Z,90.3349
2024-05-09T00:48:22.763Z,90.7347
2024-05-09T00:49:31.556Z,90.9987
2024-05-09T00:50:38.810Z,91.2520
2024-05-09T00:51:49.414Z,91.2429
2024-05-09T00:52:56.623Z,90.7240
2024-05-09T00:54:17.906Z,90.6096
2024-05-09T00:55:25.517Z,91.3527
2024-05-09T00:56:38.508Z,91.4443
2024-05-09T00:57:45.591Z,91.0033
2024-05-09T00:58:52.210Z,90.2083
2024-05-09T01:00:09.899Z,90.5699
2024-05-09T01:01:19.610Z,90.4784
2024-05-09T01:02:41.205Z,90.9041
2024-05-09T01:03:55.081Z,90.4372
2024-05-09T01:05:02.020Z,91.4336
2024-05-09T01:06:09.603Z,90.7851
2024-05-09T01:07:17.720Z,90.6142
2024-05-09T01:08:25.548Z,90.7347
2024-05-09T01:09:35.692Z,90.4219
2024-05-09T01:10:45.189Z,89.5766
2024-05-09T01:11:55.690Z,90.4463
2024-05-09T01:13:05.106Z,90.1671
2024-05-09T01:14:13.670Z,90.3944
2024-05-09T01:15:36.728Z,90.3227
2024-05-09T01:16:44.728Z,90.2846
2024-05-09T01:18:06.646Z,90.4463
2024-05-09T01:20:41.677Z,89.9382
2024-05-09T01:21:49.958Z,89.9825
2024-05-09T01:23:00.022Z,90.3990
2024-05-09T01:24:10.414Z,90.3166
2024-05-09T01:25:24.028Z,90.1427
2024-05-09T01:26:32.195Z,89.2454
2024-05-09T01:27:41.202Z,89.4118
2024-05-09T01:28:49.185Z,89.5384
2024-05-09T01:32:19.649Z,89.3324
2024-05-09T01:33:26.567Z,91.0033
2024-05-09T01:34:36.052Z,89.8451
2024-05-09T01:35:43.636Z,89.6483
2024-05-09T01:39:11.727Z,89.3568
2024-05-09T01:43:27.820Z,90.5867
2024-05-09T01:44:42.551Z,90.1808
2024-05-09T01:45:50.686Z,89.9367
2024-05-09T01:47:28.193Z,89.3050
2024-05-09T01:51:20.006Z,89.6590
2024-05-09T01:52:29.705Z,89.1081
2024-05-09T01:53:40.593Z,90.1060
2024-05-09T01:55:40.583Z,89.4438
2024-05-09T02:04:39.678Z,88.8289
2024-05-09T02:06:25.931Z,90.1717
2024-05-09T02:07:31.911Z,89.8695
2024-05-09T02:08:50.123Z,89.5628
2024-05-09T02:10:00.264Z,89.9596
2024-05-09T02:11:06.976Z,89.3416
2024-05-09T02:12:13.689Z,89.3370
2024-05-09T02:13:25.341Z,89.7139
2024-05-09T02:14:38.766Z,89.5399
2024-05-09T02:19:34.471Z,88.6656
2024-05-09T02:20:41.943Z,89.9107
2024-05-09T02:21:58.592Z,90.1060
2024-05-09T02:23:21.720Z,89.2149
2024-05-09T02:25:48.593Z,88.8258
2024-05-09T02:26:55.613Z,89.2973
2024-05-09T02:28:26.754Z,90.2769
2024-05-09T02:29:41.757Z,88.8258
2024-05-09T02:31:16.720Z,90.2632
2024-05-09T02:32:26.993Z,88.9540
2024-05-09T02:33:56.973Z,89.2836
2024-05-09T02:35:04.602Z,90.1534
2024-05-09T02:43:25.973Z,90.6157
2024-05-09T02:44:42.754Z,89.8955
2024-05-09T02:48:21.934Z,90.0694
2024-05-09T02:49:37.807Z,89.8512
2024-05-09T02:52:22.792Z,90.4677
2024-05-09T02:53:42.771Z,90.0710
2024-05-09T02:54:57.628Z,90.2937
2024-05-09T02:56:10.823Z,90.1427
2024-05-09T02:57:52.771Z,90.5882
2024-05-09T03:03:50.460Z,90.4860
2024-05-09T03:05:02.837Z,90.3502
2024-05-09T03:08:38.977Z,90.4768
2024-05-09T03:09:59.099Z,90.3716
2024-05-09T03:13:23.131Z,89.5994
2024-05-09T03:19:44.481Z,90.3044
2024-05-09T03:21:07.366Z,90.8125
2024-05-09T03:23:05.799Z,90.5196
2024-05-09T03:26:39.721Z,90.4875
2024-05-09T03:28:10.271Z,90.3029
2024-05-09T03:30:15.452Z,90.0603
2024-05-09T03:31:26.275Z,90.4265
2024-05-09T03:32:59.316Z,90.5882
2024-05-09T03:37:38.079Z,90.8309
2024-05-09T03:41:30.498Z,90.9621
2024-05-09T03:52:51.967Z,90.2678
2024-05-09T03:54:24.210Z,90.2388
2024-05-09T03:55:45.915Z,90.7011
2024-05-09T03:58:04.904Z,90.5425
2024-05-09T03:59:32.839Z,90.2266
2024-05-09T04:01:14.384Z,90.9361
2024-05-09T04:02:20.909Z,90.7759
2024-05-09T04:03:27.364Z,90.9453
2024-05-09T04:04:33.886Z,90.7652
2024-05-09T04:05:41.078Z,90.4265
2024-05-09T04:06:49.374Z,91.3329
2024-05-09T04:07:56.403Z,91.1696
2024-05-09T04:09:02.438Z,91.2062
2024-05-09T04:10:11.278Z,90.8537
2024-05-09T04:11:20.946Z,90.4677
2024-05-09T04:12:27.938Z,91.1040
2024-05-09T04:13:34.123Z,91.1421
2024-05-09T04:14:40.280Z,90.5104
2024-05-09T04:15:46.409Z,90.3716
2024-05-09T04:16:52.517Z,90.2998
2024-05-09T04:17:58.847Z,90.2907
2024-05-09T04:19:05.053Z,90.1152
2024-05-09T04:20:21.059Z,90.4036
2024-05-09T04:21:23.134Z,90.5196
2024-05-09T04:22:29.082Z,90.2800
2024-05-09T04:23:35.875Z,90.6844
2024-05-09T04:24:43.118Z,89.8863
2024-05-09T04:25:50.052Z,89.9825
2024-05-09T04:27:11.069Z,89.9184
2024-05-09T04:28:17.109Z,90.5180
2024-05-09T04:29:23.354Z,89.9519
2024-05-09T04:30:36.758Z,90.3822
2024-05-09T04:31:41.448Z,90.0648
2024-05-09T04:32:47.740Z,89.6666
2024-05-09T04:33:53.956Z,89.4804
2024-05-09T04:35:00.240Z,90.3716
2024-05-09T04:36:06.438Z,90.3731
2024-05-09T04:37:13.357Z,90.7027
2024-05-09T04:38:20.449Z,90.1884
2024-05-09T04:39:26.639Z,89.8451
2024-05-09T04:40:36.071Z,89.6712
2024-05-09T04:41:43.700Z,90.4051
2024-05-09T04:42:50.399Z,90.0847
2024-05-09T04:43:56.629Z,90.1396
2024-05-09T04:45:02.776Z,89.4667
2024-05-09T04:46:08.821Z,90.0618
2024-05-09T04:47:15.876Z,90.0374
2024-05-09T04:48:22.220Z,89.7444
2024-05-09T04:49:28.612Z,89.4972
2024-05-09T04:50:38.190Z,89.8863
2024-05-09T04:51:47.441Z,89.5796
2024-05-09T04:52:53.568Z,89.8955
2024-05-09T04:53:59.765Z,90.1701
2024-05-09T04:55:05.938Z,89.8695
2024-05-09T04:56:12.127Z,89.1920
2024-05-09T04:57:18.203Z,88.8945
2024-05-09T04:58:24.476Z,89.9107
2024-05-09T04:59:30.599Z,89.6178
2024-05-09T05:00:38.302Z,88.8060
2024-05-09T05:01:45.806Z,88.7160
2024-05-09T05:02:52.195Z,89.9596
2024-05-09T05:03:58.646Z,89.1356
2024-05-09T05:05:05.040Z,89.8375
2024-05-09T05:06:13.884Z,89.7551
2024-05-09T05:07:20.042Z,89.2729
2024-05-09T05:08:26.130Z,89.1310
2024-05-09T05:09:32.338Z,88.9952
2024-05-09T05:10:38.492Z,89.1325
2024-05-09T05:11:44.654Z,90.3304
2024-05-09T05:12:51.436Z,89.9596
2024-05-09T05:13:57.527Z,89.7093
2024-05-09T05:15:03.774Z,89.4331
2024-05-09T05:16:10.174Z,90.4189
2024-05-09T05:17:16.804Z,90.1213
2024-05-09T05:18:24.051Z,89.4423
2024-05-09T05:19:31.254Z,89.8726
2024-05-09T05:20:37.954Z,89.4667
2024-05-09T05:21:44.061Z,89.6437
2024-05-09T05:22:51.034Z,89.0944
2024-05-09T05:23:57.125Z,89.3141
2024-05-09T05:25:03.110Z,89.9916
2024-05-09T05:26:09.172Z,89.6132
2024-05-09T05:27:15.355Z,89.2866
2024-05-09T05:28:21.532Z,89.6941
2024-05-09T05:29:27.853Z,89.7078
2024-05-09T05:30:35.015Z,89.5476
2024-05-09T05:31:41.622Z,89.4850
2024-05-09T05:32:47.908Z,88.9158
2024-05-09T05:33:54.183Z,89.9428
2024-05-09T05:35:00.341Z,90.5379
2024-05-09T05:36:06.488Z,89.6269
2024-05-09T05:37:12.568Z,89.9336
2024-05-09T05:38:19.159Z,90.3044
2024-05-09T05:39:28.827Z,89.9794
2024-05-09T05:40:37.562Z,89.6529
2024-05-09T05:41:45.093Z,89.4286
2024-05-09T05:42:51.174Z,89.7734
2024-05-09T05:43:57.331Z,88.8487
2024-05-09T05:45:05.089Z,90.2205
2024-05-09T05:46:12.866Z,90.2769
2024-05-09T05:47:22.108Z,89.4667
2024-05-09T05:48:31.012Z,89.6712
2024-05-09T05:49:37.894Z,89.6025
2024-05-09T05:50:46.006Z,89.1417
2024-05-09T05:51:52.391Z,89.2088
2024-05-09T05:52:58.676Z,89.8466
2024-05-09T05:54:04.887Z,90.0786
2024-05-09T05:55:11.034Z,88.9036
2024-05-09T05:56:17.215Z,89.9321
2024-05-09T05:57:23.348Z,90.0938
2024-05-09T05:58:29.495Z,89.2409
2024-05-09T05:59:36.442Z,88.9799
2024-05-09T06:00:43.423Z,89.4804
2024-05-09T06:01:49.608Z,88.9021
2024-05-09T06:02:55.839Z,88.7922
2024-05-09T06:04:01.918Z,89.7353
2024-05-09T06:05:08.218Z,89.6895
2024-05-09T06:06:14.479Z,90.0114
2024-05-09T06:07:21.433Z,90.3136
2024-05-09T06:08:30.144Z,89.8878
2024-05-09T06:09:36.958Z,89.3156
2024-05-09T06:10:43.122Z,89.6498
2024-05-09T06:11:49.472Z,88.9586
2024-05-09T06:12:55.555Z,88.1239
2024-05-09T06:14:01.673Z,88.4672
2024-05-09T06:15:07.704Z,88.8930
2024-05-09T06:16:13.811Z,89.0501
2024-05-09T06:17:20.038Z,89.5857
2024-05-09T06:18:26.649Z,89.2363
2024-05-09T06:19:33.205Z,88.4215
2024-05-09T06:20:39.978Z,89.2729
2024-05-09T06:21:48.451Z,88.4092
2024-05-09T06:22:55.183Z,88.6198
2024-05-09T06:24:10.576Z,87.6677
2024-05-09T06:25:39.344Z,87.2831
2024-05-09T06:26:46.042Z,88.4993
2024-05-09T06:27:52.137Z,88.0735
2024-05-09T06:28:58.334Z,87.9591
2024-05-09T06:30:05.201Z,86.3676
2024-05-09T06:31:11.483Z,86.7369
2024-05-09T06:32:18.108Z,87.4159
2024-05-09T06:33:24.610Z,85.8625
2024-05-09T06:34:30.902Z,85.6840
2024-05-09T06:35:40.203Z,85.8671
2024-05-09T06:36:46.600Z,85.9648
2024-05-09T06:37:52.828Z,86.4271
2024-05-09T06:38:58.962Z,86.2715
2024-05-09T06:40:10.069Z,85.9586
2024-05-09T06:41:17.069Z,85.3498
2024-05-09T06:42:23.682Z,85.2079
2024-05-09T06:43:29.894Z,85.8259
2024-05-09T06:44:36.093Z,85.9556
2024-05-09T06:45:42.391Z,85.5482
2024-05-09T06:46:48.563Z,85.4917
2024-05-09T06:48:01.605Z,85.9541
2024-05-09T06:49:09.309Z,85.4368
2024-05-09T06:50:23.912Z,84.9119
2024-05-09T06:51:33.567Z,86.2104
2024-05-09T06:52:43.235Z,84.3015
2024-05-09T06:53:49.636Z,84.1505
2024-05-09T06:54:57.058Z,84.0269
2024-05-09T06:56:26.259Z,83.9734
2024-05-09T06:58:05.378Z,84.1413
2024-05-09T06:59:11.913Z,84.0818
2024-05-09T07:00:26.801Z,85.3819
2024-05-09T07:01:31.063Z,84.5121
2024-05-09T07:02:37.723Z,84.9332
2024-05-09T07:03:45.268Z,84.4953
2024-05-09T07:04:54.763Z,85.5116
2024-05-09T07:06:04.483Z,85.0019
2024-05-09T07:09:06.093Z,84.7929
2024-05-09T07:10:18.063Z,84.6677
2024-05-09T07:11:31.593Z,83.7674
2024-05-09T07:12:40.747Z,83.7583
2024-05-09T07:13:49.513Z,83.8529
2024-05-09T07:14:55.701Z,83.6988
2024-05-09T07:16:04.759Z,83.9307
2024-05-09T07:17:11.504Z,83.5416
2024-05-09T07:18:19.916Z,84.1840
2024-05-09T07:19:27.034Z,84.7929
2024-05-09T07:20:34.977Z,82.9557
2024-05-09T07:21:45.069Z,82.8931
2024-05-09T07:22:53.933Z,83.1205
2024-05-09T07:24:03.294Z,83.7613
2024-05-09T07:25:10.783Z,83.2273
2024-05-09T07:26:18.818Z,82.4567
2024-05-09T07:27:26.685Z,83.3722
2024-05-09T07:28:33.203Z,82.7970
2024-05-09T07:29:40.089Z,83.1250
2024-05-09T07:30:47.524Z,82.8733
2024-05-09T07:31:53.684Z,82.0493
2024-05-09T07:33:00.720Z,82.2065
2024-05-09T07:34:07.389Z,82.4018
2024-05-09T07:35:15.816Z,81.7670
2024-05-09T07:36:22.546Z,82.3468
2024-05-09T07:37:29.390Z,81.7563
2024-05-09T07:38:36.669Z,82.9023
2024-05-09T07:39:43.364Z,82.9343
2024-05-09T07:40:49.748Z,82.0554
2024-05-09T07:41:56.584Z,82.2751
2024-05-09T07:43:03.104Z,82.0584
2024-05-09T07:44:09.377Z,82.2202
2024-05-09T07:45:38.960Z,81.8524
2024-05-09T07:47:36.441Z,82.3102
2024-05-09T07:49:11.994Z,82.4979
2024-05-09T07:50:35.274Z,80.8179
2024-05-09T07:52:22.652Z,80.7736
2024-05-09T07:53:32.469Z,81.6785
2024-05-09T07:53:44.763Z,81.3275
2024-05-09T07:54:53.218Z,81.9730
2024-05-09T07:55:59.645Z,82.1317
2024-05-09T07:57:05.957Z,82.1134
2024-05-09T07:58:12.166Z,81.3901
2024-05-09T07:59:18.448Z,82.8000
2024-05-09T08:00:30.850Z,81.0071
2024-05-09T08:01:38.107Z,81.5702
2024-05-09T08:02:45.936Z,81.1749
2024-05-09T08:03:52.712Z,81.3687
2024-05-09T08:04:59.712Z,80.4990
2024-05-09T08:06:05.952Z,80.4944
2024-05-09T08:07:12.283Z,80.9506
2024-05-09T08:08:18.547Z,80.5570
2024-05-09T08:09:24.942Z,80.5066
2024-05-09T08:10:31.136Z,79.1974
2024-05-09T08:11:37.791Z,79.4949
2024-05-09T08:12:44.208Z,80.1511
2024-05-09T08:13:50.473Z,80.1038
2024-05-09T08:14:56.911Z,79.9619
2024-05-09T08:16:03.613Z,80.1724
2024-05-09T08:17:10.643Z,79.4125
2024-05-09T08:18:17.300Z,80.6210
2024-05-09T08:19:24.557Z,79.6231
2024-05-09T08:20:33.909Z,80.4120
2024-05-09T08:21:43.308Z,80.4425
2024-05-09T08:22:49.738Z,79.0188
2024-05-09T08:23:56.083Z,79.5285
2024-05-09T08:25:02.479Z,80.3204
2024-05-09T08:26:08.748Z,79.4492
2024-05-09T08:27:15.065Z,79.5453
2024-05-09T08:28:21.349Z,80.0580
2024-05-09T08:29:27.630Z,80.5264
2024-05-09T08:30:37.174Z,80.3830
2024-05-09T08:31:44.928Z,80.9094
2024-05-09T08:32:51.162Z,80.2838
2024-05-09T08:33:57.683Z,80.2411
2024-05-09T08:35:04.223Z,80.9888
2024-05-09T08:36:25.078Z,80.5341
2024-05-09T08:37:36.632Z,80.4242
2024-05-09T08:38:43.431Z,80.7263
2024-05-09T08:39:49.768Z,80.2915
2024-05-09T08:40:55.963Z,80.0595
2024-05-09T08:42:02.110Z,80.9293
2024-05-09T08:43:08.606Z,79.2248
2024-05-09T08:44:15.382Z,80.2151
2024-05-09T08:45:21.452Z,80.2563
2024-05-09T08:46:27.690Z,80.6485
2024-05-09T08:47:34.144Z,79.5956
2024-05-09T08:48:40.642Z,78.8602
2024-05-09T08:49:47.677Z,78.5214
2024-05-09T08:50:54.021Z,79.2935
2024-05-09T08:52:00.262Z,79.7894
2024-05-09T08:53:06.599Z,79.9802
2024-05-09T08:54:12.601Z,79.1714
2024-05-09T08:55:18.836Z,78.2834
2024-05-09T08:56:26.087Z,77.7569
2024-05-09T08:57:32.434Z,77.9797
2024-05-09T08:58:38.510Z,78.5107
2024-05-09T08:59:44.624Z,78.0301
2024-05-09T09:00:50.961Z,77.2702
2024-05-09T09:01:57.687Z,76.0891
2024-05-09T09:03:03.946Z,76.5209
2024-05-09T09:04:10.444Z,76.6537
2024-05-09T09:05:16.998Z,77.2290
2024-05-09T09:06:23.285Z,76.9039
2024-05-09T09:07:29.915Z,76.9543
2024-05-09T09:08:36.061Z,77.2015
2024-05-09T09:09:42.269Z,77.9202
2024-05-09T09:10:48.555Z,77.9522
2024-05-09T09:11:54.782Z,78.1994
2024-05-09T09:13:00.988Z,77.8653
2024-05-09T09:14:07.147Z,77.8012
2024-05-09T09:15:13.553Z,77.5128
2024-05-09T09:16:22.709Z,77.3358
2024-05-09T09:17:29.270Z,78.6160
2024-05-09T09:18:35.589Z,77.9522
2024-05-09T09:19:41.916Z,78.4802
2024-05-09T09:20:48.956Z,77.8561
2024-05-09T09:21:56.022Z,79.0295
2024-05-09T09:23:02.585Z,77.3083
2024-05-09T09:24:09.973Z,76.3836
2024-05-09T09:25:16.373Z,76.4828
2024-05-09T09:26:22.735Z,76.9604
2024-05-09T09:27:29.195Z,76.9772
2024-05-09T09:28:35.284Z,76.8353
2024-05-09T09:29:41.518Z,77.2290
2024-05-09T09:30:47.876Z,75.8648
2024-05-09T09:31:56.702Z,75.9472
2024-05-09T09:33:03.353Z,74.8394
2024-05-09T09:34:09.894Z,76.9726
2024-05-09T09:35:16.147Z,76.7803
2024-05-09T09:36:22.558Z,75.7092
2024-05-09T09:37:29.121Z,75.8694
2024-05-09T09:38:35.831Z,75.3353
2024-05-09T09:39:42.098Z,75.9609
2024-05-09T09:40:50.097Z,74.9615
2024-05-09T09:41:56.565Z,76.4111
2024-05-09T09:43:02.817Z,75.4437
2024-05-09T09:44:09.516Z,76.2921
2024-05-09T09:45:15.643Z,75.0332
2024-05-09T09:46:21.813Z,79.0921
2024-05-09T09:47:28.048Z,76.4874
2024-05-09T09:48:34.685Z,74.6365
2024-05-09T09:49:41.464Z,74.4259
2024-05-09T09:50:48.030Z,74.6059
2024-05-09T09:51:54.478Z,75.0866
2024-05-09T09:53:00.828Z,75.4406
2024-05-09T09:54:07.179Z,74.7555
2024-05-09T09:55:14.193Z,74.0612
2024-05-09T09:56:20.351Z,73.5851
2024-05-09T09:57:26.760Z,73.1029
2024-05-09T09:58:32.846Z,73.3104
2024-05-09T09:59:38.887Z,72.4849
2024-05-09T10:00:46.307Z,74.3847
2024-05-09T10:01:52.888Z,73.1258
2024-05-09T10:02:59.562Z,72.8878
2024-05-09T10:04:07.416Z,73.0541
2024-05-09T10:05:13.952Z,72.1523
2024-05-09T10:06:20.420Z,70.9789
2024-05-09T10:07:26.663Z,69.5201
2024-05-09T10:08:33.173Z,70.6096
2024-05-09T10:09:39.415Z,71.0307
2024-05-09T10:10:46.325Z,71.7952
2024-05-09T10:11:59.701Z,69.5430
2024-05-09T10:13:05.911Z,70.6691
2024-05-09T10:14:12.577Z,70.6371
2024-05-09T10:15:18.961Z,68.6595
2024-05-09T10:16:25.722Z,70.2983
2024-05-09T10:17:32.772Z,69.6574
2024-05-09T10:18:39.553Z,69.9046
2024-05-09T10:19:46.259Z,70.7057
2024-05-09T10:20:52.626Z,69.0074
2024-05-09T10:21:58.924Z,69.4408
2024-05-09T10:23:20.215Z,68.7038
2024-05-09T10:24:26.546Z,68.4291
2024-05-09T10:25:32.823Z,68.5771
2024-05-09T10:26:39.099Z,68.4474
2024-05-09T10:27:45.435Z,67.3213
2024-05-09T10:28:51.601Z,66.6484
2024-05-09T10:29:57.829Z,66.5034
2024-05-09T10:31:04.077Z,65.7786
2024-05-09T10:32:10.474Z,67.7470
2024-05-09T10:33:16.665Z,65.7328
2024-05-09T10:34:23.364Z,66.2699
2024-05-09T10:35:29.450Z,66.5202
2024-05-09T10:36:35.770Z,66.9093
2024-05-09T10:37:41.939Z,67.0970
2024-05-09T10:38:48.200Z,66.6133
2024-05-09T10:39:54.474Z,67.8904
2024-05-09T10:41:00.637Z,67.7150
2024-05-09T10:42:07.140Z,67.4540
2024-05-09T10:43:13.348Z,67.6295
2024-05-09T10:44:19.569Z,69.4774
2024-05-09T10:45:25.636Z,69.9641
2024-05-09T10:46:32.057Z,69.2073
2024-05-09T10:47:39.264Z,69.1814
2024-05-09T10:48:45.640Z,68.6320
2024-05-09T10:49:52.674Z,68.3467
2024-05-09T10:50:59.167Z,67.7256
2024-05-09T10:52:05.255Z,69.4957
2024-05-09T10:53:11.451Z,71.6793
2024-05-09T10:54:20.531Z,69.0120
2024-05-09T10:55:26.870Z,69.6651
2024-05-09T10:56:33.141Z,71.3817
2024-05-09T10:57:39.574Z,70.4036
2024-05-09T10:58:45.676Z,72.4636
2024-05-09T10:59:54.641Z,70.3380
2024-05-09T11:01:05.462Z,71.0216
2024-05-09T11:02:14.014Z,68.7327
2024-05-09T11:03:20.851Z,68.7419
2024-05-09T11:04:27.058Z,68.3970
2024-05-09T11:05:33.477Z,68.0186
2024-05-09T11:06:40.408Z,67.8157
2024-05-09T11:07:47.189Z,66.7323
2024-05-09T11:08:53.331Z,66.4256
2024-05-09T11:10:00.104Z,65.2705
2024-05-09T11:11:08.233Z,65.5879
2024-05-09T11:12:15.786Z,65.6596
2024-05-09T11:13:22.420Z,64.4160
2024-05-09T11:14:29.779Z,64.7959
2024-05-09T11:15:36.395Z,64.9729
2024-05-09T11:17:11.317Z,67.2770
2024-05-09T11:18:15.947Z,65.6245
2024-05-09T11:19:20.992Z,66.4469
2024-05-09T11:20:29.739Z,66.4347
2024-05-09T11:21:34.685Z,67.1122
2024-05-09T11:22:38.815Z,66.8696
2024-05-09T11:23:43.321Z,65.0202
2024-05-09T11:24:48.299Z,61.4221
2024-05-09T11:25:52.470Z,61.2329
2024-05-09T11:26:56.538Z,61.1139
2024-05-09T11:28:00.687Z,62.5116
2024-05-09T11:29:05.816Z,61.3153
2024-05-09T11:30:14.457Z,60.6928
2024-05-09T11:31:20.043Z,61.9471
2024-05-09T11:32:24.260Z,61.4618
2024-05-09T11:33:28.912Z,62.2049
2024-05-09T11:34:35.238Z,60.7401
2024-05-09T11:35:39.368Z,61.6770
2024-05-09T11:36:43.579Z,64.5487
2024-05-09T11:37:47.769Z,65.4093
2024-05-09T11:38:52.364Z,66.6346
2024-05-09T11:39:56.628Z,65.9159
2024-05-09T11:41:00.925Z,66.0945
2024-05-09T11:42:05.829Z,66.6941
2024-05-09T11:43:10.127Z,65.7298
2024-05-09T11:44:14.425Z,66.1738
2024-05-09T11:45:18.511Z,66.5339
2024-05-09T11:46:23.510Z,66.6301
2024-05-09T11:47:27.511Z,64.6021
2024-05-09T11:48:31.801Z,64.6723
2024-05-09T11:49:36.190Z,67.2221
2024-05-09T11:50:40.203Z,65.4459
2024-05-09T11:51:44.396Z,65.5497
2024-05-09T11:52:48.466Z,64.4923
2024-05-09T11:53:52.711Z,64.7868
2024-05-09T11:54:56.838Z,66.1601
2024-05-09T11:56:01.065Z,66.4927
2024-05-09T11:57:05.324Z,67.8355
2024-05-09T11:58:09.549Z,67.8859
2024-05-09T11:59:13.719Z,67.6112
2024-05-09T12:00:25.214Z,65.7374
2024-05-09T12:01:28.346Z,65.7465
2024-05-09T12:02:33.083Z,68.7541
2024-05-09T12:03:37.546Z,65.4719
2024-05-09T12:04:41.921Z,65.3956
2024-05-09T12:05:46.447Z,64.8493
2024-05-09T12:06:50.784Z,64.8692
2024-05-09T12:07:56.056Z,66.4652
2024-05-09T12:09:00.240Z,64.9500
2024-05-09T12:10:06.059Z,64.1764
2024-05-09T12:11:14.905Z,63.7751
2024-05-09T12:12:19.060Z,64.3046
2024-05-09T12:13:23.341Z,63.1022
2024-05-09T12:14:27.617Z,64.2267
2024-05-09T12:15:31.924Z,63.6378
2024-05-09T12:16:36.322Z,63.5721
2024-05-09T12:17:40.600Z,63.4211
2024-05-09T12:18:45.620Z,62.7298
2024-05-09T12:19:49.908Z,63.0655
2024-05-09T12:20:54.129Z,63.3127
2024-05-09T12:21:58.454Z,64.8875
2024-05-09T12:23:02.616Z,63.0655
2024-05-09T12:24:06.855Z,63.7598
2024-05-09T12:25:11.889Z,64.3046
2024-05-09T12:26:16.130Z,64.4938
2024-05-09T12:27:21.316Z,64.0482
2024-05-09T12:28:25.642Z,63.3478
2024-05-09T12:29:30.022Z,64.0116
2024-05-09T12:30:38.062Z,64.0314
2024-05-09T12:31:44.504Z,62.9099
2024-05-09T12:32:48.952Z,62.5437
2024-05-09T12:33:53.323Z,61.5305
2024-05-09T12:34:57.764Z,60.9628
2024-05-09T12:36:02.015Z,60.0885
2024-05-09T12:37:06.218Z,59.6490
2024-05-09T12:38:11.265Z,60.7980
2024-05-09T12:39:15.548Z,61.4481
2024-05-09T12:40:31.831Z,59.0967
2024-05-09T12:41:59.919Z,57.4716
2024-05-09T12:43:09.997Z,57.8103
2024-05-09T12:44:18.058Z,58.3627
2024-05-09T12:45:23.274Z,58.5962
2024-05-09T12:46:36.802Z,59.4812
2024-05-09T12:47:50.557Z,57.9934
2024-05-09T12:49:07.336Z,57.5128
2024-05-09T12:50:29.876Z,58.5412
2024-05-09T12:51:32.345Z,59.3118
2024-05-09T12:52:39.299Z,59.2783
2024-05-09T12:54:04.169Z,60.4150
2024-05-09T12:55:16.614Z,60.3098
2024-05-09T12:56:30.315Z,61.2009
2024-05-09T12:57:44.816Z,58.8754
2024-05-09T12:58:59.080Z,59.4125
2024-05-09T13:00:14.176Z,61.2146
2024-05-09T13:01:24.178Z,61.1658
2024-05-09T13:02:34.052Z,61.2741
2024-05-09T13:03:45.989Z,60.9323
2024-05-09T13:05:07.809Z,60.6714
2024-05-09T13:06:12.133Z,61.5961
2024-05-09T13:07:18.941Z,61.5869
2024-05-09T13:08:23.271Z,60.7309
2024-05-09T13:09:28.914Z,59.4171
2024-05-09T13:10:33.768Z,60.9873
2024-05-09T13:11:38.514Z,59.0860
2024-05-09T13:12:44.667Z,58.4192
2024-05-09T13:13:49.286Z,59.2889
2024-05-09T13:14:55.024Z,57.9339
2024-05-09T13:16:00.430Z,59.4125
2024-05-09T13:17:04.519Z,59.6094
2024-05-09T13:18:10.491Z,57.2824
2024-05-09T13:19:15.500Z,57.9416
2024-05-09T13:20:29.118Z,53.6355
2024-05-09T13:21:30.648Z,55.5718
2024-05-09T13:22:34.830Z,54.3725
2024-05-09T13:23:39.450Z,54.7112
2024-05-09T13:24:43.867Z,54.5556
2024-05-09T13:25:48.424Z,57.0275
2024-05-09T13:26:52.865Z,57.0489
2024-05-09T13:27:57.794Z,58.1338
2024-05-09T13:29:02.535Z,57.9889
2024-05-09T13:30:11.873Z,57.3419
2024-05-09T13:31:18.423Z,57.2045
2024-05-09T13:32:23.292Z,56.4034
2024-05-09T13:33:28.255Z,56.9665
2024-05-09T13:34:32.846Z,57.7829
2024-05-09T13:35:38.277Z,57.3526
2024-05-09T13:36:42.883Z,59.4110
2024-05-09T13:37:48.667Z,59.8978
2024-05-09T13:38:53.093Z,58.0468
2024-05-09T13:39:58.152Z,57.6181
2024-05-09T13:41:02.786Z,58.6801
2024-05-09T13:42:07.501Z,57.5128
2024-05-09T13:43:12.366Z,57.9553
2024-05-09T13:44:17.237Z,59.1318
2024-05-09T13:45:21.383Z,57.5952
2024-05-09T13:46:25.886Z,58.4634
2024-05-09T13:47:32.163Z,56.0937
2024-05-09T13:48:36.774Z,55.7137
2024-05-09T13:49:42.181Z,56.1212
2024-05-09T13:50:47.458Z,56.8765
2024-05-09T13:51:52.009Z,57.4166
2024-05-09T13:52:56.479Z,57.8561
2024-05-09T13:54:00.737Z,59.5209
2024-05-09T13:55:05.101Z,58.1445
2024-05-09T13:56:10.126Z,58.7472
2024-05-09T13:57:17.400Z,59.6094
2024-05-09T13:58:23.050Z,59.4629
2024-05-09T13:59:31.379Z,59.8566
2024-05-09T14:00:44.358Z,59.6002
2024-05-09T14:01:47.203Z,59.9847
2024-05-09T14:02:51.948Z,57.8561
2024-05-09T14:03:58.045Z,57.2961
2024-05-09T14:05:02.621Z,58.9548
2024-05-09T14:06:09.432Z,56.9406
2024-05-09T14:07:17.978Z,56.8475
2024-05-09T14:08:23.702Z,58.7564
2024-05-09T14:09:28.475Z,57.8820
2024-05-09T14:10:33.797Z,58.8937
2024-05-09T14:11:38.689Z,57.1405
2024-05-09T14:12:42.974Z,58.1857
2024-05-09T14:13:48.102Z,60.1679
2024-05-09T14:14:52.339Z,59.5071
2024-05-09T14:15:56.804Z,57.7691
2024-05-09T14:17:01.294Z,59.0280
2024-05-09T14:18:08.107Z,58.2864
2024-05-09T14:19:14.320Z,58.4726
2024-05-09T14:20:28.301Z,59.3439
2024-05-09T14:21:29.741Z,58.8083
2024-05-09T14:22:34.450Z,59.8383
2024-05-09T14:23:39.368Z,59.2844
2024-05-09T14:24:45.664Z,56.7391
2024-05-09T14:25:51.973Z,56.3897
2024-05-09T14:26:57.167Z,57.3190
2024-05-09T14:28:01.485Z,56.8307
2024-05-09T14:29:06.392Z,55.7488
2024-05-09T14:30:18.138Z,51.5831
2024-05-09T14:31:21.067Z,53.1777
2024-05-09T14:32:25.247Z,51.5846
2024-05-09T14:33:31.097Z,48.4901
2024-05-09T14:36:47.627Z,47.4815
2024-05-09T14:38:06.869Z,52.4437
2024-05-09T14:39:37.228Z,54.6136
2024-05-09T14:41:19.979Z,57.0947
2024-05-09T14:42:25.645Z,55.1492
2024-05-09T14:43:35.121Z,56.3684
2024-05-09T14:44:52.194Z,56.9390
2024-05-09T14:45:58.769Z,56.3806
2024-05-09T14:47:07.948Z,58.5748
2024-05-09T14:48:15.326Z,56.7285
2024-05-09T14:49:22.825Z,58.4588
2024-05-09T14:50:38.794Z,56.6690
2024-05-09T14:51:49.571Z,54.6471
2024-05-09T14:52:54.610Z,55.5718
2024-05-09T14:54:00.730Z,56.1425
2024-05-09T14:55:16.971Z,56.1852
2024-05-09T14:56:27.599Z,56.5591
2024-05-09T14:57:34.728Z,55.8267
2024-05-09T14:58:41.554Z,53.2143
2024-05-09T14:59:47.103Z,56.1563
2024-05-09T15:00:58.212Z,53.9635
2024-05-09T15:02:13.161Z,53.6995
2024-05-09T15:03:26.933Z,55.1736